FDY805 KIPL-KLAX
Flight info
| Callsign | FDY805 |
|---|---|
| Flight time | 1h 2m |
| Altitude | 8000 |
| Route | IPL V458 OCN V23 SLI OLAAA2 |
| Aircraft | C208/L-SDFGR/C |
Departure
| Time | 2026-05-09 02:44 |
|---|---|
| Airport | Imperial County Airport (KIPL) |
Arrival
| Time | 2026-05-09 03:47 |
|---|---|
| Airport | Los Angeles International Airport (KLAX) |
| Time | Latitude | Longitude | Altitude | Speed | Heading |
|---|---|---|---|---|---|
| 2026-05-09 02:27 | 32.83644 | -115.57414 | -45 ft | 0 kts | 244° |
| 2026-05-09 02:40 | 32.83630 | -115.57405 | -51 ft | 0 kts | 122° |
| 2026-05-09 02:40 | 32.83573 | -115.57355 | -46 ft | 10 kts | 186° |
| 2026-05-09 02:40 | 32.83568 | -115.57355 | -54 ft | 0 kts | 183° |
| 2026-05-09 02:42 | 32.83565 | -115.57356 | -56 ft | 4 kts | 190° |
| 2026-05-09 02:42 | 32.83505 | -115.57368 | -50 ft | 14 kts | 167° |
| 2026-05-09 02:42 | 32.83382 | -115.57298 | -50 ft | 28 kts | 151° |
| 2026-05-09 02:43 | 32.83147 | -115.57155 | -46 ft | 43 kts | 153° |
| 2026-05-09 02:43 | 32.83031 | -115.57173 | -52 ft | 22 kts | 324° |
| 2026-05-09 02:43 | 32.83290 | -115.57340 | -53 ft | 67 kts | 332° |
| 2026-05-09 02:43 | 32.83798 | -115.57633 | 46 ft | 91 kts | 328° |
| 2026-05-09 02:44 | 32.84393 | -115.57898 | 346 ft | 92 kts | 345° |
| 2026-05-09 02:44 | 32.85024 | -115.57642 | 565 ft | 108 kts | 35° |
| 2026-05-09 02:44 | 32.85365 | -115.56840 | 822 ft | 117 kts | 90° |
| 2026-05-09 02:44 | 32.85086 | -115.55913 | 1069 ft | 124 kts | 136° |
| 2026-05-09 02:45 | 32.84358 | -115.55362 | 1321 ft | 124 kts | 171° |
| 2026-05-09 02:45 | 32.83603 | -115.55565 | 1652 ft | 117 kts | 223° |
| 2026-05-09 02:45 | 32.82989 | -115.56202 | 1988 ft | 115 kts | 231° |
| 2026-05-09 02:45 | 32.82615 | -115.57040 | 2244 ft | 120 kts | 247° |
| 2026-05-09 02:46 | 32.82204 | -115.57906 | 2574 ft | 119 kts | 233° |
| 2026-05-09 02:46 | 32.81627 | -115.58604 | 2911 ft | 120 kts | 224° |
| 2026-05-09 02:46 | 32.81146 | -115.59440 | 3167 ft | 125 kts | 252° |
| 2026-05-09 02:46 | 32.80983 | -115.60458 | 3476 ft | 126 kts | 262° |
| 2026-05-09 02:47 | 32.80893 | -115.61492 | 3777 ft | 126 kts | 263° |
| 2026-05-09 02:47 | 32.80805 | -115.62538 | 4118 ft | 130 kts | 262° |
| 2026-05-09 02:47 | 32.80727 | -115.63261 | 4250 ft | 136 kts | 261° |
| 2026-05-09 02:47 | 32.80599 | -115.64403 | 4451 ft | 142 kts | 262° |
| 2026-05-09 02:48 | 32.80489 | -115.65577 | 4639 ft | 144 kts | 264° |
| 2026-05-09 02:48 | 32.80389 | -115.66771 | 4819 ft | 146 kts | 263° |
| 2026-05-09 02:48 | 32.80267 | -115.67983 | 5008 ft | 149 kts | 262° |
| 2026-05-09 02:48 | 32.80131 | -115.69211 | 5199 ft | 151 kts | 261° |
| 2026-05-09 02:49 | 32.79994 | -115.70443 | 5384 ft | 151 kts | 261° |
| 2026-05-09 02:49 | 32.79857 | -115.71679 | 5577 ft | 152 kts | 261° |
| 2026-05-09 02:49 | 32.79718 | -115.72931 | 5772 ft | 153 kts | 261° |
| 2026-05-09 02:49 | 32.79579 | -115.74194 | 5977 ft | 155 kts | 261° |
| 2026-05-09 02:50 | 32.79439 | -115.75468 | 6171 ft | 156 kts | 261° |
| 2026-05-09 02:50 | 32.79300 | -115.76753 | 6359 ft | 157 kts | 261° |
| 2026-05-09 02:50 | 32.79160 | -115.78048 | 6545 ft | 158 kts | 262° |
| 2026-05-09 02:50 | 32.79019 | -115.79344 | 6729 ft | 158 kts | 261° |
| 2026-05-09 02:51 | 32.78876 | -115.80640 | 6920 ft | 158 kts | 262° |
| 2026-05-09 02:51 | 32.78735 | -115.81936 | 7105 ft | 159 kts | 262° |
| 2026-05-09 02:51 | 32.78593 | -115.83236 | 7298 ft | 159 kts | 262° |
| 2026-05-09 02:51 | 32.78451 | -115.84523 | 7488 ft | 159 kts | 262° |
| 2026-05-09 02:52 | 32.78306 | -115.85842 | 7681 ft | 159 kts | 262° |
| 2026-05-09 02:52 | 32.78164 | -115.87127 | 7792 ft | 162 kts | 262° |
| 2026-05-09 02:52 | 32.78015 | -115.88477 | 7814 ft | 168 kts | 262° |
| 2026-05-09 02:52 | 32.77860 | -115.89897 | 7834 ft | 174 kts | 262° |
| 2026-05-09 02:53 | 32.77704 | -115.91330 | 7843 ft | 180 kts | 262° |
| 2026-05-09 02:53 | 32.77543 | -115.92806 | 7914 ft | 180 kts | 262° |
| 2026-05-09 02:53 | 32.77380 | -115.94281 | 7963 ft | 181 kts | 262° |
| 2026-05-09 02:53 | 32.77215 | -115.95775 | 7983 ft | 183 kts | 262° |
| 2026-05-09 02:54 | 32.77048 | -115.97274 | 7996 ft | 184 kts | 262° |
| 2026-05-09 02:54 | 32.76882 | -115.98778 | 8006 ft | 184 kts | 262° |
| 2026-05-09 02:54 | 32.76714 | -116.00285 | 8014 ft | 184 kts | 263° |
| 2026-05-09 02:54 | 32.76547 | -116.01791 | 8043 ft | 184 kts | 262° |
| 2026-05-09 02:55 | 32.76423 | -116.03308 | 8051 ft | 184 kts | 269° |
| 2026-05-09 02:55 | 32.76562 | -116.04805 | 8056 ft | 182 kts | 282° |
| 2026-05-09 02:55 | 32.76977 | -116.06221 | 8055 ft | 182 kts | 295° |
| 2026-05-09 02:55 | 32.77647 | -116.07495 | 8062 ft | 183 kts | 306° |
| 2026-05-09 02:56 | 32.78474 | -116.08645 | 8062 ft | 183 kts | 309° |
| 2026-05-09 02:56 | 32.79303 | -116.09794 | 8044 ft | 184 kts | 310° |
| 2026-05-09 02:56 | 32.80132 | -116.10948 | 8043 ft | 183 kts | 308° |
| 2026-05-09 02:56 | 32.80949 | -116.12110 | 8045 ft | 183 kts | 308° |
| 2026-05-09 02:57 | 32.81771 | -116.13262 | 8043 ft | 183 kts | 309° |
| 2026-05-09 02:57 | 32.82593 | -116.14412 | 8073 ft | 182 kts | 309° |
| 2026-05-09 02:57 | 32.83416 | -116.15559 | 8078 ft | 183 kts | 309° |
| 2026-05-09 02:57 | 32.84231 | -116.16716 | 8076 ft | 182 kts | 308° |
| 2026-05-09 02:58 | 32.85025 | -116.17889 | 8077 ft | 182 kts | 305° |
| 2026-05-09 02:58 | 32.85814 | -116.19061 | 8082 ft | 182 kts | 308° |
| 2026-05-09 02:58 | 32.86644 | -116.20196 | 8057 ft | 182 kts | 309° |
| 2026-05-09 02:58 | 32.87468 | -116.21333 | 8056 ft | 181 kts | 310° |
| 2026-05-09 02:59 | 32.88293 | -116.22464 | 8056 ft | 181 kts | 310° |
| 2026-05-09 02:59 | 32.89121 | -116.23600 | 8058 ft | 182 kts | 309° |
| 2026-05-09 02:59 | 32.89940 | -116.24761 | 8058 ft | 184 kts | 309° |
| 2026-05-09 02:59 | 32.90767 | -116.25921 | 8088 ft | 183 kts | 309° |
| 2026-05-09 03:00 | 32.91581 | -116.27056 | 8089 ft | 178 kts | 308° |
| 2026-05-09 03:00 | 32.92359 | -116.28188 | 8087 ft | 175 kts | 308° |
| 2026-05-09 03:00 | 32.93141 | -116.29305 | 8094 ft | 176 kts | 309° |
| 2026-05-09 03:00 | 32.94025 | -116.30301 | 8093 ft | 176 kts | 314° |
| 2026-05-09 03:01 | 32.94824 | -116.31416 | 8078 ft | 177 kts | 307° |
| 2026-05-09 03:01 | 32.95577 | -116.32579 | 8081 ft | 178 kts | 308° |
| 2026-05-09 03:01 | 32.96348 | -116.33733 | 8080 ft | 178 kts | 307° |
| 2026-05-09 03:01 | 32.97129 | -116.34873 | 8076 ft | 177 kts | 308° |
| 2026-05-09 03:02 | 32.97921 | -116.35997 | 8070 ft | 177 kts | 309° |
| 2026-05-09 03:02 | 32.98712 | -116.37112 | 8072 ft | 176 kts | 309° |
| 2026-05-09 03:02 | 32.99508 | -116.38230 | 8113 ft | 177 kts | 309° |
| 2026-05-09 03:02 | 33.00301 | -116.39345 | 8111 ft | 176 kts | 309° |
| 2026-05-09 03:03 | 33.01090 | -116.40459 | 8093 ft | 175 kts | 308° |
| 2026-05-09 03:03 | 33.01875 | -116.41573 | 8104 ft | 176 kts | 308° |
| 2026-05-09 03:03 | 33.02666 | -116.42683 | 8088 ft | 175 kts | 310° |
| 2026-05-09 03:03 | 33.03459 | -116.43790 | 8095 ft | 175 kts | 308° |
| 2026-05-09 03:04 | 33.04243 | -116.44909 | 8100 ft | 177 kts | 309° |
| 2026-05-09 03:04 | 33.05039 | -116.46034 | 8103 ft | 178 kts | 309° |
| 2026-05-09 03:04 | 33.05838 | -116.47158 | 8092 ft | 178 kts | 309° |
| 2026-05-09 03:04 | 33.06636 | -116.48282 | 8107 ft | 178 kts | 309° |
| 2026-05-09 03:05 | 33.07428 | -116.49400 | 8108 ft | 179 kts | 309° |
| 2026-05-09 03:05 | 33.08231 | -116.50537 | 8128 ft | 179 kts | 309° |
| 2026-05-09 03:05 | 33.09033 | -116.51671 | 8108 ft | 179 kts | 309° |
| 2026-05-09 03:05 | 33.09840 | -116.52809 | 8107 ft | 180 kts | 309° |
| 2026-05-09 03:06 | 33.10645 | -116.53943 | 8109 ft | 179 kts | 309° |
| 2026-05-09 03:06 | 33.11448 | -116.55079 | 8111 ft | 179 kts | 309° |
| 2026-05-09 03:06 | 33.12242 | -116.56205 | 8100 ft | 176 kts | 309° |
| 2026-05-09 03:06 | 33.13044 | -116.57310 | 8101 ft | 170 kts | 310° |
| 2026-05-09 03:07 | 33.13710 | -116.58253 | 8090 ft | 129 kts | 302° |
| 2026-05-09 03:07 | 33.14000 | -116.59146 | 8078 ft | 107 kts | 281° |
| 2026-05-09 03:07 | 33.14114 | -116.60084 | 8120 ft | 125 kts | 279° |
| 2026-05-09 03:07 | 33.14262 | -116.61197 | 8136 ft | 146 kts | 279° |
| 2026-05-09 03:08 | 33.14437 | -116.62462 | 8138 ft | 162 kts | 279° |
| 2026-05-09 03:08 | 33.14619 | -116.63833 | 8154 ft | 172 kts | 279° |
| 2026-05-09 03:08 | 33.14797 | -116.65272 | 8143 ft | 178 kts | 279° |
| 2026-05-09 03:08 | 33.14976 | -116.66749 | 8132 ft | 181 kts | 278° |
| 2026-05-09 03:09 | 33.15156 | -116.68247 | 8125 ft | 182 kts | 278° |
| 2026-05-09 03:09 | 33.15334 | -116.69747 | 8130 ft | 183 kts | 278° |
| 2026-05-09 03:09 | 33.15494 | -116.71255 | 8129 ft | 183 kts | 277° |
| 2026-05-09 03:09 | 33.15657 | -116.72764 | 8131 ft | 183 kts | 278° |
| 2026-05-09 03:10 | 33.15827 | -116.74268 | 8131 ft | 183 kts | 278° |
| 2026-05-09 03:10 | 33.16004 | -116.75769 | 8135 ft | 183 kts | 278° |
| 2026-05-09 03:10 | 33.16193 | -116.77271 | 8138 ft | 183 kts | 279° |
| 2026-05-09 03:10 | 33.16391 | -116.78768 | 8140 ft | 183 kts | 279° |
| 2026-05-09 03:11 | 33.16557 | -116.80263 | 8106 ft | 180 kts | 277° |
| 2026-05-09 03:11 | 33.16722 | -116.81737 | 8138 ft | 180 kts | 278° |
| 2026-05-09 03:11 | 33.16888 | -116.83225 | 8153 ft | 182 kts | 277° |
| 2026-05-09 03:11 | 33.16990 | -116.84729 | 8143 ft | 182 kts | 270° |
| 2026-05-09 03:12 | 33.17145 | -116.86225 | 8140 ft | 182 kts | 283° |
| 2026-05-09 03:12 | 33.17463 | -116.87683 | 8146 ft | 182 kts | 284° |
| 2026-05-09 03:12 | 33.17730 | -116.89165 | 8149 ft | 183 kts | 280° |
| 2026-05-09 03:12 | 33.17932 | -116.90668 | 8150 ft | 184 kts | 278° |
| 2026-05-09 03:13 | 33.18261 | -116.93700 | 8136 ft | 184 kts | 277° |
| 2026-05-09 03:13 | 33.18423 | -116.95214 | 8137 ft | 184 kts | 277° |
| 2026-05-09 03:13 | 33.18590 | -116.96728 | 8138 ft | 184 kts | 278° |
| 2026-05-09 03:14 | 33.18765 | -116.98245 | 8141 ft | 184 kts | 278° |
| 2026-05-09 03:14 | 33.18941 | -116.99760 | 8149 ft | 185 kts | 278° |
| 2026-05-09 03:14 | 33.19119 | -117.01277 | 8149 ft | 185 kts | 278° |
| 2026-05-09 03:14 | 33.19296 | -117.02774 | 8149 ft | 185 kts | 278° |
| 2026-05-09 03:15 | 33.19477 | -117.04288 | 8146 ft | 184 kts | 278° |
| 2026-05-09 03:15 | 33.19658 | -117.05800 | 8148 ft | 184 kts | 278° |
| 2026-05-09 03:15 | 33.19839 | -117.07306 | 8151 ft | 182 kts | 278° |
| 2026-05-09 03:15 | 33.20019 | -117.08793 | 8155 ft | 181 kts | 278° |
| 2026-05-09 03:16 | 33.20198 | -117.10290 | 8152 ft | 183 kts | 278° |
| 2026-05-09 03:16 | 33.20379 | -117.11799 | 8163 ft | 184 kts | 278° |
| 2026-05-09 03:16 | 33.20560 | -117.13309 | 8161 ft | 184 kts | 278° |
| 2026-05-09 03:16 | 33.20679 | -117.14309 | 8161 ft | 184 kts | 278° |
| 2026-05-09 03:17 | 33.20925 | -117.16335 | 8159 ft | 184 kts | 279° |
| 2026-05-09 03:17 | 33.21110 | -117.17846 | 8155 ft | 184 kts | 277° |
| 2026-05-09 03:17 | 33.21288 | -117.19361 | 8172 ft | 184 kts | 277° |
| 2026-05-09 03:17 | 33.21458 | -117.20879 | 8174 ft | 185 kts | 277° |
| 2026-05-09 03:18 | 33.21633 | -117.22402 | 8173 ft | 185 kts | 278° |
| 2026-05-09 03:18 | 33.21811 | -117.23921 | 8173 ft | 185 kts | 278° |
| 2026-05-09 03:18 | 33.21991 | -117.25441 | 8171 ft | 185 kts | 278° |
| 2026-05-09 03:18 | 33.22172 | -117.26963 | 8173 ft | 185 kts | 278° |
| 2026-05-09 03:19 | 33.22351 | -117.28484 | 8171 ft | 185 kts | 278° |
| 2026-05-09 03:19 | 33.22529 | -117.30005 | 8172 ft | 185 kts | 278° |
| 2026-05-09 03:19 | 33.22706 | -117.31525 | 8173 ft | 184 kts | 278° |
| 2026-05-09 03:19 | 33.22889 | -117.33023 | 8171 ft | 181 kts | 278° |
| 2026-05-09 03:20 | 33.23070 | -117.34503 | 8172 ft | 179 kts | 278° |
| 2026-05-09 03:20 | 33.23248 | -117.35972 | 8173 ft | 179 kts | 278° |
| 2026-05-09 03:20 | 33.23424 | -117.37437 | 8174 ft | 178 kts | 278° |
| 2026-05-09 03:20 | 33.23598 | -117.38903 | 8176 ft | 178 kts | 278° |
| 2026-05-09 03:21 | 33.23772 | -117.40371 | 8171 ft | 178 kts | 278° |
| 2026-05-09 03:21 | 33.24075 | -117.41793 | 8168 ft | 178 kts | 296° |
| 2026-05-09 03:21 | 33.24861 | -117.42928 | 8172 ft | 178 kts | 315° |
| 2026-05-09 03:21 | 33.25757 | -117.43952 | 8185 ft | 178 kts | 314° |
| 2026-05-09 03:22 | 33.26644 | -117.44985 | 8185 ft | 179 kts | 314° |
| 2026-05-09 03:22 | 33.27530 | -117.46030 | 8183 ft | 179 kts | 314° |
| 2026-05-09 03:22 | 33.28416 | -117.47071 | 8181 ft | 179 kts | 314° |
| 2026-05-09 03:22 | 33.29308 | -117.48108 | 8181 ft | 179 kts | 314° |
| 2026-05-09 03:23 | 33.30197 | -117.49147 | 8179 ft | 179 kts | 314° |
| 2026-05-09 03:23 | 33.31090 | -117.50188 | 8180 ft | 179 kts | 314° |
| 2026-05-09 03:23 | 33.31983 | -117.51223 | 8179 ft | 179 kts | 314° |
| 2026-05-09 03:23 | 33.32856 | -117.52254 | 8179 ft | 179 kts | 314° |
| 2026-05-09 03:24 | 33.33757 | -117.53310 | 8179 ft | 179 kts | 314° |
| 2026-05-09 03:24 | 33.34636 | -117.54333 | 8178 ft | 179 kts | 314° |
| 2026-05-09 03:24 | 33.35529 | -117.55371 | 8176 ft | 179 kts | 314° |
| 2026-05-09 03:24 | 33.36436 | -117.56417 | 8175 ft | 179 kts | 315° |
| 2026-05-09 03:25 | 33.37325 | -117.57430 | 8173 ft | 179 kts | 315° |
| 2026-05-09 03:25 | 33.38221 | -117.58458 | 8173 ft | 179 kts | 314° |
| 2026-05-09 03:25 | 33.39109 | -117.59496 | 8174 ft | 178 kts | 314° |
| 2026-05-09 03:25 | 33.39997 | -117.60536 | 8173 ft | 179 kts | 314° |
| 2026-05-09 03:26 | 33.40884 | -117.61578 | 8170 ft | 179 kts | 314° |
| 2026-05-09 03:26 | 33.41770 | -117.62621 | 8168 ft | 179 kts | 314° |
| 2026-05-09 03:26 | 33.42657 | -117.63665 | 8166 ft | 179 kts | 314° |
| 2026-05-09 03:26 | 33.43543 | -117.64706 | 8166 ft | 179 kts | 314° |
| 2026-05-09 03:27 | 33.44423 | -117.65754 | 8164 ft | 178 kts | 313° |
| 2026-05-09 03:27 | 33.45304 | -117.66801 | 8165 ft | 179 kts | 314° |
| 2026-05-09 03:27 | 33.46200 | -117.67833 | 8165 ft | 179 kts | 314° |
| 2026-05-09 03:27 | 33.47096 | -117.68869 | 8167 ft | 179 kts | 314° |
| 2026-05-09 03:28 | 33.47989 | -117.69911 | 8166 ft | 180 kts | 314° |
| 2026-05-09 03:28 | 33.48878 | -117.70956 | 8166 ft | 180 kts | 314° |
| 2026-05-09 03:28 | 33.49772 | -117.72008 | 8166 ft | 180 kts | 314° |
| 2026-05-09 03:28 | 33.50663 | -117.73058 | 8164 ft | 180 kts | 314° |
| 2026-05-09 03:29 | 33.51544 | -117.74118 | 8170 ft | 180 kts | 313° |
| 2026-05-09 03:29 | 33.52427 | -117.75179 | 8170 ft | 180 kts | 314° |
| 2026-05-09 03:29 | 33.53322 | -117.76230 | 8169 ft | 180 kts | 314° |
| 2026-05-09 03:29 | 33.54216 | -117.77284 | 8170 ft | 180 kts | 314° |
| 2026-05-09 03:30 | 33.55110 | -117.78340 | 8169 ft | 181 kts | 314° |
| 2026-05-09 03:30 | 33.56010 | -117.79387 | 8165 ft | 180 kts | 315° |
| 2026-05-09 03:30 | 33.56918 | -117.80420 | 8171 ft | 180 kts | 314° |
| 2026-05-09 03:30 | 33.57821 | -117.81465 | 8170 ft | 180 kts | 314° |
| 2026-05-09 03:31 | 33.58705 | -117.82504 | 8173 ft | 180 kts | 314° |
| 2026-05-09 03:31 | 33.59596 | -117.83565 | 8174 ft | 181 kts | 313° |
| 2026-05-09 03:31 | 33.60489 | -117.84628 | 8174 ft | 181 kts | 314° |
| 2026-05-09 03:31 | 33.61385 | -117.85685 | 8175 ft | 181 kts | 314° |
| 2026-05-09 03:32 | 33.62279 | -117.86746 | 8173 ft | 181 kts | 314° |
| 2026-05-09 03:32 | 33.63173 | -117.87807 | 8173 ft | 181 kts | 314° |
| 2026-05-09 03:32 | 33.64070 | -117.88865 | 8173 ft | 181 kts | 314° |
| 2026-05-09 03:32 | 33.64968 | -117.89920 | 8171 ft | 181 kts | 314° |
| 2026-05-09 03:33 | 33.65874 | -117.90964 | 8173 ft | 181 kts | 315° |
| 2026-05-09 03:33 | 33.66787 | -117.92003 | 8173 ft | 181 kts | 314° |
| 2026-05-09 03:33 | 33.67399 | -117.92708 | 8174 ft | 181 kts | 314° |
| 2026-05-09 03:33 | 33.68301 | -117.93757 | 8173 ft | 181 kts | 314° |
| 2026-05-09 03:34 | 33.69199 | -117.94811 | 8172 ft | 181 kts | 314° |
| 2026-05-09 03:34 | 33.70091 | -117.95874 | 8171 ft | 180 kts | 313° |
| 2026-05-09 03:34 | 33.70983 | -117.96930 | 8172 ft | 180 kts | 314° |
| 2026-05-09 03:34 | 33.71878 | -117.97981 | 8171 ft | 180 kts | 314° |
| 2026-05-09 03:35 | 33.72773 | -117.99036 | 8169 ft | 180 kts | 314° |
| 2026-05-09 03:35 | 33.73669 | -118.00092 | 8169 ft | 180 kts | 314° |
| 2026-05-09 03:35 | 33.74564 | -118.01150 | 8168 ft | 181 kts | 314° |
| 2026-05-09 03:35 | 33.75459 | -118.02209 | 8119 ft | 181 kts | 313° |
| 2026-05-09 03:36 | 33.76349 | -118.03273 | 8119 ft | 181 kts | 313° |
| 2026-05-09 03:36 | 33.77252 | -118.04327 | 8117 ft | 181 kts | 314° |
| 2026-05-09 03:36 | 33.78130 | -118.05405 | 8118 ft | 180 kts | 308° |
| 2026-05-09 03:36 | 33.78814 | -118.06638 | 8118 ft | 179 kts | 298° |
| 2026-05-09 03:37 | 33.79413 | -118.07974 | 8114 ft | 179 kts | 297° |
| 2026-05-09 03:37 | 33.79993 | -118.09287 | 8115 ft | 178 kts | 297° |
| 2026-05-09 03:37 | 33.80577 | -118.10599 | 8116 ft | 178 kts | 297° |
| 2026-05-09 03:37 | 33.81168 | -118.11906 | 8119 ft | 178 kts | 297° |
| 2026-05-09 03:38 | 33.81757 | -118.13220 | 8166 ft | 178 kts | 297° |
| 2026-05-09 03:38 | 33.82347 | -118.14531 | 8166 ft | 179 kts | 297° |
| 2026-05-09 03:38 | 33.82942 | -118.15844 | 8165 ft | 178 kts | 297° |
| 2026-05-09 03:38 | 33.83534 | -118.17155 | 8163 ft | 179 kts | 297° |
| 2026-05-09 03:39 | 33.84267 | -118.18350 | 8156 ft | 180 kts | 320° |
| 2026-05-09 03:39 | 33.85457 | -118.18873 | 7927 ft | 188 kts | 354° |
| 2026-05-09 03:39 | 33.86707 | -118.18440 | 7659 ft | 192 kts | 32° |
| 2026-05-09 03:39 | 33.87533 | -118.17199 | 7396 ft | 193 kts | 65° |
| 2026-05-09 03:40 | 33.87946 | -118.15658 | 7140 ft | 193 kts | 71° |
| 2026-05-09 03:40 | 33.88679 | -118.14344 | 6862 ft | 193 kts | 35° |
| 2026-05-09 03:40 | 33.89940 | -118.13893 | 6588 ft | 192 kts | 354° |
| 2026-05-09 03:40 | 33.91125 | -118.14523 | 6304 ft | 189 kts | 315° |
| 2026-05-09 03:41 | 33.91677 | -118.15922 | 6004 ft | 188 kts | 276° |
| 2026-05-09 03:41 | 33.91648 | -118.17481 | 5710 ft | 185 kts | 271° |
| 2026-05-09 03:41 | 33.91842 | -118.19008 | 5421 ft | 185 kts | 286° |
| 2026-05-09 03:41 | 33.92288 | -118.20456 | 5117 ft | 185 kts | 293° |
| 2026-05-09 03:42 | 33.92815 | -118.21859 | 4794 ft | 183 kts | 294° |
| 2026-05-09 03:42 | 33.93335 | -118.23227 | 4448 ft | 176 kts | 294° |
| 2026-05-09 03:42 | 33.93831 | -118.24554 | 4102 ft | 170 kts | 293° |
| 2026-05-09 03:42 | 33.94278 | -118.25774 | 3753 ft | 148 kts | 294° |
| 2026-05-09 03:43 | 33.94524 | -118.26709 | 3462 ft | 95 kts | 278° |
| 2026-05-09 03:43 | 33.94585 | -118.27513 | 2891 ft | 98 kts | 273° |
| 2026-05-09 03:43 | 33.94604 | -118.28357 | 2301 ft | 100 kts | 270° |
| 2026-05-09 03:43 | 33.94582 | -118.29187 | 1761 ft | 94 kts | 266° |
| 2026-05-09 03:44 | 33.94539 | -118.29961 | 1388 ft | 92 kts | 263° |
| 2026-05-09 03:44 | 33.94472 | -118.30779 | 1304 ft | 102 kts | 260° |
| 2026-05-09 03:44 | 33.94382 | -118.31643 | 1201 ft | 106 kts | 259° |
| 2026-05-09 03:44 | 33.94308 | -118.32490 | 1165 ft | 102 kts | 262° |
| 2026-05-09 03:45 | 33.94233 | -118.33337 | 1067 ft | 103 kts | 260° |
| 2026-05-09 03:45 | 33.94125 | -118.34186 | 919 ft | 103 kts | 258° |
| 2026-05-09 03:45 | 33.94039 | -118.35025 | 736 ft | 102 kts | 262° |
| 2026-05-09 03:45 | 33.93971 | -118.35850 | 584 ft | 95 kts | 262° |
| 2026-05-09 03:46 | 33.93897 | -118.36616 | 436 ft | 88 kts | 264° |
| 2026-05-09 03:46 | 33.93835 | -118.37268 | 318 ft | 74 kts | 261° |
| 2026-05-09 03:46 | 33.93775 | -118.37878 | 220 ft | 72 kts | 261° |
| 2026-05-09 03:46 | 33.93713 | -118.38481 | 123 ft | 71 kts | 262° |
| 2026-05-09 03:47 | 33.93662 | -118.39004 | 91 ft | 43 kts | 274° |
| 2026-05-09 03:47 | 33.93695 | -118.39155 | 93 ft | 18 kts | 16° |
| 2026-05-09 03:47 | 33.93762 | -118.39253 | 92 ft | 26 kts | 285° |
| 2026-05-09 03:47 | 33.93861 | -118.39370 | 93 ft | 36 kts | 351° |
| 2026-05-09 03:48 | 33.93938 | -118.39498 | 94 ft | 28 kts | 257° |
| 2026-05-09 03:48 | 33.93900 | -118.39680 | 97 ft | 19 kts | 156° |
| 2026-05-09 03:48 | 33.93973 | -118.39523 | 92 ft | 16 kts | 8° |
| 2026-05-09 03:48 | 33.94053 | -118.39470 | 92 ft | 22 kts | 12° |
| 2026-05-09 03:49 | 33.94082 | -118.39466 | 92 ft | 8 kts | 80° |
| 2026-05-09 03:49 | 33.94078 | -118.39457 | 92 ft | 0 kts | 194° |